1994 ORCHID (1994259N12128)


On this page: IBTrACS data - Map and Plots - Positions - Intensities - Original source data

Summary

Start Sep 16
End Oct 2
Basin WP
LMI 135 kt
Sources jtwc_wp
tokyo
cma
hko
In WMO? Yes
Previous storm 1994 NAT (WP)
Previous in basin 1994 NAT (WP)
Concurrent storms 1994 MELISSA (WP)
1994 NAT (WP)
1994 ORCHID (WP)
1994 MIRIAM (EP)
1994 NORMAN (EP)
1994 PAT (WP)
1994 ERNESTO (NA)
1994 OLIVIA (EP)
1994 PAT (WP)
1994 PAUL (EP)
1994 MISSING (NA)
1994 MISSING (NA)
1994 TD0928 (WP)
1994 MISSING (NA)
1994 SETH (WP)
1995 A19495 (SI)
Next in basin 1994 PAT (WP)
Next storm 1994 MIRIAM (EP)

top of page IBTrACS Data: File Access

top of page HURSAT Data: File Access

Image of storm

top of page Plots:

Map of storm track will not appear if FTP is down
Time series of cyclone Maximum Sustained Wind will not appear if FTP is down
Time series of cyclone Minimum Central Pressure will not appear if FTP is down

top of page Track Data:Position

jtwc_wp tokyo cma hko
Date Lat Lon Lat Lon Lat Lon Lat Lon
1994-09-16 00:00:00 12.0 128.0
1994-09-16 06:00:00 12.0 129.5
1994-09-16 12:00:00 12.1 131.0
1994-09-16 18:00:00 12.1 132.5
1994-09-17 00:00:00 12.2 134.0
1994-09-17 06:00:00 12.2 135.4 14.0 135.0
1994-09-17 12:00:00 12.2 136.7 13.5 136.5 13.7 136.3
1994-09-17 18:00:00 12.1 137.9 13.5 137.5 13.5 137.5
1994-09-18 00:00:00 12.0 139.1 13.3 139.0 13.3 139.0
1994-09-18 06:00:00 11.9 140.1 13.0 140.5 12.8 140.2
1994-09-18 12:00:00 11.8 141.0 12.0 140.7 12.0 140.7 11.8 141.1
1994-09-18 18:00:00 11.8 141.8 11.8 141.6 11.8 141.6 12.0 141.8
1994-09-19 00:00:00 12.0 142.6 12.1 142.5 12.1 142.3 12.4 142.4
1994-09-19 06:00:00 12.4 143.3 12.7 142.3 12.7 142.3 12.9 142.9
1994-09-19 12:00:00 13.1 143.8 13.5 142.5 13.3 142.6 13.5 143.2
1994-09-19 18:00:00 14.0 143.8 14.2 142.8 14.2 142.8 14.2 143.4
1994-09-20 00:00:00 14.9 143.3 14.8 143.2 15.0 143.0 14.9 143.3
1994-09-20 06:00:00 15.7 142.7 15.6 142.2 15.8 142.2 15.5 142.7
1994-09-20 12:00:00 16.5 142.2 16.1 141.4 16.2 141.5 16.0 141.8
1994-09-20 18:00:00 17.2 141.8 17.1 141.1 17.2 141.1 17.0 141.3
1994-09-21 00:00:00 17.9 141.4 18.0 141.4 18.0 141.4 18.0 141.4
1994-09-21 06:00:00 18.5 141.1 18.5 141.5 18.7 141.5 18.8 141.5
1994-09-21 12:00:00 18.8 140.4 19.0 140.9 19.0 140.9 19.4 141.0
1994-09-21 18:00:00 18.7 139.8 18.6 140.1 18.6 140.1 19.1 140.2
1994-09-22 00:00:00 18.5 139.2 18.2 139.3 18.2 139.3 18.7 139.5
jtwc_wp tokyo cma hko
1994-09-22 06:00:00 18.2 138.6 17.8 138.6 17.8 138.6 18.2 139.0
1994-09-22 12:00:00 17.8 138.3 17.5 138.1 17.5 138.1 17.8 138.6
1994-09-22 18:00:00 17.5 138.1 17.2 137.9 17.2 137.9 17.4 138.4
1994-09-23 00:00:00 17.3 138.0 17.2 138.1 17.2 137.8 17.2 138.1
1994-09-23 06:00:00 17.4 138.0 17.5 138.0 17.5 138.0 17.3 137.9
1994-09-23 12:00:00 17.7 137.9 17.9 137.8 17.8 137.9 17.8 137.8
1994-09-23 18:00:00 18.2 137.7 18.4 137.5 18.3 137.6 18.4 137.5
1994-09-24 00:00:00 18.7 137.3 18.9 137.1 18.9 137.1 18.9 137.0
1994-09-24 06:00:00 19.0 136.9 19.2 136.8 19.2 136.8 19.2 136.8
1994-09-24 12:00:00 19.4 136.8 19.4 136.7 19.4 136.7 19.4 136.7
1994-09-24 18:00:00 19.8 136.9 19.8 136.7 19.7 136.7 19.7 136.7
1994-09-25 00:00:00 20.3 136.8 20.2 136.7 20.2 136.8 20.2 136.6
1994-09-25 06:00:00 20.8 136.6 20.7 136.5 20.8 136.5 20.7 136.5
1994-09-25 12:00:00 21.3 136.3 21.1 136.4 21.1 136.4 21.2 136.4
1994-09-25 18:00:00 22.0 135.9 21.9 136.1 21.9 136.1 21.8 136.2
1994-09-26 00:00:00 22.7 135.5 22.5 135.7 22.5 135.6 22.5 135.7
1994-09-26 06:00:00 23.3 135.0 23.4 134.9 23.4 135.0 23.3 135.0
1994-09-26 12:00:00 23.9 134.3 24.0 134.1 24.0 134.1 24.0 134.1
1994-09-26 18:00:00 24.5 133.6 24.5 133.5 24.5 133.5 24.4 133.6
1994-09-27 00:00:00 25.1 133.0 25.2 132.9 25.2 132.9 24.9 133.1
1994-09-27 06:00:00 25.7 132.7 25.6 132.7 25.7 132.7 25.5 132.7
1994-09-27 12:00:00 26.3 132.5 26.2 132.6 26.2 132.6 26.1 132.5
1994-09-27 18:00:00 26.9 132.4 26.8 132.4 26.9 132.4 26.7 132.4
1994-09-28 00:00:00 27.5 132.4 27.3 132.5 27.4 132.4 27.3 132.4
jtwc_wp tokyo cma hko
1994-09-28 06:00:00 28.1 132.7 28.0 132.7 28.1 132.5 27.9 132.6
1994-09-28 12:00:00 28.8 133.1 28.6 133.0 28.7 133.0 28.6 132.9
1994-09-28 18:00:00 29.7 133.5 29.5 133.5 29.7 133.5 29.6 133.4
1994-09-29 00:00:00 30.9 134.1 31.0 134.0 31.0 134.0 30.8 134.0
1994-09-29 06:00:00 32.4 134.8 32.4 134.7 32.4 134.7 32.2 134.8
1994-09-29 12:00:00 34.3 135.8 34.2 135.7 34.3 135.8 34.1 135.8
1994-09-29 18:00:00 36.9 137.1 36.9 136.4 36.7 137.0 36.6 136.5
1994-09-30 00:00:00 39.5 138.5 39.3 138.3 39.3 138.3
1994-09-30 06:00:00 42.0 139.7 41.4 139.2 41.4 139.2
1994-09-30 12:00:00 44.2 140.6 43.5 140.5 43.5 140.5
1994-09-30 18:00:00 46.1 141.0 44.5 141.0 44.5 141.0
1994-10-01 00:00:00 47.7 141.4 46.0 143.5 46.0 143.5
1994-10-01 06:00:00 49.1 142.0 47.0 145.0 47.0 145.0
1994-10-01 12:00:00 50.5 143.0 48.0 146.0 48.0 146.0
1994-10-01 18:00:00 49.0 147.0 49.0 147.0
1994-10-02 00:00:00 50.0 148.0 50.0 148.0
1994-10-02 06:00:00 50.5 149.0
1994-10-02 12:00:00 50.5 149.5

top of pageTrack Data:Intensity

jtwc_wp tokyo cma hko
Date Wind Pres Wind Pres Wind Pres Wind Pres
1994-09-16 00:00:00 15.
1994-09-16 06:00:00 15.
1994-09-16 12:00:00 20.
1994-09-16 18:00:00 20.
1994-09-17 00:00:00 20.
1994-09-17 06:00:00 25. 23. 1000.
1994-09-17 12:00:00 25. 1000. 29. 1000.
1994-09-17 18:00:00 25. 1000. 29. 1000.
1994-09-18 00:00:00 25. 1000. 29. 1000.
1994-09-18 06:00:00 30. 1000. 29. 1000.
1994-09-18 12:00:00 30. 998. 29. 1000. 25. 1002.
1994-09-18 18:00:00 30. 35. 996. 29. 1000. 30. 1000.
1994-09-19 00:00:00 30. 35. 996. 29. 1000. 35. 998.
1994-09-19 06:00:00 35. 35. 996. 29. 998. 35. 998.
1994-09-19 12:00:00 35. 35. 996. 39. 995. 40. 994.
1994-09-19 18:00:00 40. 35. 996. 39. 995. 40. 994.
1994-09-20 00:00:00 40. 40. 994. 39. 995. 40. 994.
1994-09-20 06:00:00 45. 40. 994. 39. 995. 40. 994.
1994-09-20 12:00:00 45. 40. 994. 39. 995. 40. 994.
1994-09-20 18:00:00 50. 45. 992. 49. 990. 45. 990.
1994-09-21 00:00:00 50. 45. 990. 49. 990. 45. 990.
1994-09-21 06:00:00 55. 45. 990. 49. 990. 45. 990.
1994-09-21 12:00:00 55. 45. 990. 49. 985. 45. 990.
1994-09-21 18:00:00 60. 50. 985. 58. 980. 50. 985.
1994-09-22 00:00:00 60. 50. 985. 58. 980. 50. 985.
jtwc_wp tokyo cma hko
1994-09-22 06:00:00 65. 55. 980. 58. 980. 50. 985.
1994-09-22 12:00:00 70. 55. 980. 58. 980. 55. 980.
1994-09-22 18:00:00 75. 55. 980. 58. 980. 60. 975.
1994-09-23 00:00:00 80. 60. 975. 58. 980. 60. 975.
1994-09-23 06:00:00 85. 65. 970. 68. 970. 65. 970.
1994-09-23 12:00:00 95. 75. 960. 78. 965. 70. 965.
1994-09-23 18:00:00 105. 85. 950. 87. 955. 80. 955.
1994-09-24 00:00:00 115. 90. 940. 87. 950. 90. 945.
1994-09-24 06:00:00 125. 95. 930. 97. 940. 95. 940.
1994-09-24 12:00:00 125. 100. 925. 107. 935. 100. 930.
1994-09-24 18:00:00 130. 100. 925. 107. 930. 105. 925.
1994-09-25 00:00:00 135. 100. 925. 107. 930. 105. 925.
1994-09-25 06:00:00 135. 100. 925. 107. 930. 105. 925.
1994-09-25 12:00:00 135. 100. 925. 107. 930. 105. 925.
1994-09-25 18:00:00 130. 100. 925. 107. 930. 105. 925.
1994-09-26 00:00:00 130. 100. 925. 107. 930. 105. 925.
1994-09-26 06:00:00 130. 100. 925. 107. 930. 105. 925.
1994-09-26 12:00:00 125. 100. 925. 107. 930. 105. 925.
1994-09-26 18:00:00 125. 100. 925. 107. 930. 105. 925.
1994-09-27 00:00:00 120. 95. 930. 107. 930. 100. 930.
1994-09-27 06:00:00 115. 95. 930. 97. 940. 95. 940.
1994-09-27 12:00:00 110. 95. 930. 97. 940. 95. 940.
1994-09-27 18:00:00 110. 95. 930. 97. 940. 95. 940.
1994-09-28 00:00:00 105. 90. 935. 97. 940. 90. 945.
jtwc_wp tokyo cma hko
1994-09-28 06:00:00 105. 90. 935. 97. 940. 90. 945.
1994-09-28 12:00:00 105. 90. 935. 97. 940. 90. 945.
1994-09-28 18:00:00 100. 85. 940. 97. 945. 85. 950.
1994-09-29 00:00:00 100. 80. 945. 87. 950. 80. 955.
1994-09-29 06:00:00 95. 80. 950. 87. 955. 75. 960.
1994-09-29 12:00:00 80. 75. 960. 68. 965. 70. 965.
1994-09-29 18:00:00 65. 55. 980. 58. 980. 55. 980.
1994-09-30 00:00:00 60. 55. 985. 58. 980.
1994-09-30 06:00:00 60. 990. 49. 990.
1994-09-30 12:00:00 55. 998. 29. 998.
1994-09-30 18:00:00 50. 1000. 29. 1000.
1994-10-01 00:00:00 45. 1002. 29. 1000.
1994-10-01 06:00:00 40. 1002. 29. 1000.
1994-10-01 12:00:00 35. 1002. 29. 1000.
1994-10-01 18:00:00 1000. 29. 1000.
1994-10-02 00:00:00 1000. 29. 1000.
1994-10-02 06:00:00 1000.
1994-10-02 12:00:00 1000.

top of page Links to source data

Source Source file Format
jtwc_wp bwp281994.txt ATCF
tokyo bst_all.txt:Line=44395:ORCHID:9426 JMA text table
cma CH1994BST.txt:Storm=29:Orchid CMA text table
hko tc-besttrack-data-current.txt:Line=24456:ORCHID HKO Text table